Airfield :
LOGIN :

Register | Disclaimer

   EN    FR    IT 

 










Legend :    VFR   Marginal VFR   IFR   Intensive IFR   Very Intensive IFR
Visi :
Ceiling :
>= 8 km
>= 3000ft
5 to 8 km
1000 to 3000 ft
1500m to 5 km
500 to 1000 ft
800 to 1500m
200 to 500 ft
< 800m
< 200 ft
Symbols :   Thunderstorms  Fog  Heavy snow  Heavy precipitations  Wind > 20 kt
SIGMETs :     Misc.  Thunderstorms  Icing  Turbulence  Mountain Waves  Volcanic Ashes







- Airport Elevation : 1416 ft
- IATA code : ZRH


LSZH - Zurich

CURRENT METAR :
  • 160720Z 30003KT CAVOK 07/06 Q1019 NOSIG

EXPIRED METARs :
  • 160650Z 30003KT 9999 MIFG NSC 06/06 Q1019 NOSIG
  • 160620Z 00000KT 9999 MIFG NSC 05/05 Q1019 NOSIG
  • 160550Z VRB01KT 9999 R14/P2000N R16/P2000N R28/0100N R34/P2000N MIFG NSC 05/05 Q1019 TEMPO 2000
  • 160520Z 32002KT 9999 R14/1100U R16/P2000N R28/P2000N R34/P2000N MIFG NSC 04/04 Q1019 TEMPO 2000
  • 160450Z VRB01KT 9999 MIFG NSC 05/04 Q1019 TEMPO 2000

TAF TAF LSZH
Valid from the 16 at 06:00 until the 17 at 12:00 UTC


160525Z 1606/1712 VRB02KT 7000 MIFG NSC TX22/1614Z TN05/1606Z TN05/1703Z
PROB40 1606/1608 2500 BCFG FEW002
BECMG 1607/1609 CAVOK
TEMPO 1611/1618 04005KT
BECMG 1622/1701 6000 MIFG NSC
BECMG 1702/1704 2000 BCFG SCT002
PROB30 1703/1707 0400 FG VV002
BECMG 1707/1709 6000 BR FEW005
BECMG 1710/1712 04006KT CAVOK
ATIS : +41 43 816 2295 (DEP) +41 43 816 2294 (ARR)
No reported NOTAMs for that airfield.



MET'MAP, your aeronautical weather chart ! - Copyright ORBIFLY December 2007 - Disclaimer

ORBIFLY MET'MAP TEAM :

Programming & Development : Alexandra Zaïnal
Concept & Development : Baudouin d'Aumeries
Co-Development & Prog : Marc-Olivier Méhu
Technical & hardware support : Manuel Goepfert

Contact : metmap@orbifly.com




SOURCES & CREDITS :

   NOAA